»·PEaware :: N5MW KTEX-KFLG

N5MW :: KTEX-KFLG

FLIGHT INFORMATION

Flight Status: Arrived
Operator: Privately registered:
United States
More flights under this callsign
Pilot: Ian G. (41107)
Aircraft: CIRRUS VISIONJET
(SF50)
More flights by this aircraft type
Origin: KTEX Telluride Regl
United States
Destination: KFLG Flagstaff Pulliam
United States
More flights between these airports :: More routes between these airports
Route: ETL NAVJO FRISY
File this flight plan on PilotEdge
Remarks: RMK / SIMBRIEF
Altitude:
(Current/Filed)
30,000ft
Speed:
(Current/Filed)
281kts
Departed: 01-Apr-23 08:44 AM
Arrived: 01-Apr-23 09:48 AM
Distance/Time
Traveled:
248nm/1:04
Distance/Time
To Go:
Arrived

Flight Plot

Page will automatically refresh every two minutes.

Flight plan parsing failed; only flown route is shown


Map Options




Map Legend


Flown Route
Filed Route
Departure Airport
Arrival Airport
Navaid (VOR, NDB)
Fix

Horizontal Profiles

Position Reports

Time Latitude Longitude Heading Altitude Ground
Speed
01-Apr-23 08:36 37.955586 -107.902139 337 9064ft 0kts
01-Apr-23 08:37 37.955586 -107.902139 337 9064ft 0kts
01-Apr-23 08:38 37.955586 -107.902139 337 9064ft 0kts
01-Apr-23 08:39 37.955586 -107.902139 337 9064ft 0kts
01-Apr-23 08:40 37.955586 -107.902139 337 9064ft 0kts
01-Apr-23 08:41 37.954600 -107.902373 194 9064ft 11kts
01-Apr-23 08:42 37.953290 -107.901197 146 9063ft 0kts
01-Apr-23 08:43 37.953981 -107.909519 284 9041ft 94kts
01-Apr-23 08:44 37.965461 -107.954865 286 9778ft 183kts
01-Apr-23 08:45 37.980932 -108.017848 286 12552ft 175kts
01-Apr-23 08:46 37.995635 -108.077250 287 14523ft 178kts
01-Apr-23 08:47 38.010354 -108.136932 288 16463ft 176kts
01-Apr-23 08:48 38.024872 -108.196001 288 18402ft 175kts
01-Apr-23 08:49 38.036403 -108.255904 256 20078ft 186kts
01-Apr-23 08:50 38.004741 -108.311606 238 21746ft 198kts
01-Apr-23 08:51 37.969803 -108.363529 241 23545ft 190kts
01-Apr-23 08:52 37.936048 -108.413713 242 24985ft 185kts
01-Apr-23 08:53 37.903078 -108.462765 243 26477ft 180kts
01-Apr-23 08:54 37.871140 -108.510162 244 27864ft 174kts
01-Apr-23 08:55 37.840100 -108.556193 245 29217ft 169kts
01-Apr-23 08:56 37.809567 -108.601630 245 30196ft 178kts
01-Apr-23 08:57 37.774260 -108.653713 243 30251ft 210kts
01-Apr-23 08:58 37.734171 -108.712707 242 30251ft 231kts
01-Apr-23 08:59 37.690960 -108.776248 241 30247ft 243kts
01-Apr-23 09:00 37.645934 -108.842347 240 30247ft 252kts
01-Apr-23 09:01 37.599664 -108.910186 240 30253ft 258kts
01-Apr-23 09:02 37.553374 -108.977966 240 30255ft 256kts
01-Apr-23 09:03 37.507231 -109.045329 240 30256ft 254kts
01-Apr-23 09:04 37.460646 -109.113118 239 30262ft 258kts
01-Apr-23 09:05 37.413739 -109.181296 239 30280ft 257kts
01-Apr-23 09:06 37.366924 -109.249191 239 30281ft 257kts
01-Apr-23 09:07 37.320337 -109.316597 239 30281ft 254kts
01-Apr-23 09:08 37.273596 -109.384141 238 30267ft 255kts
01-Apr-23 09:09 37.227023 -109.451299 238 30254ft 256kts
01-Apr-23 09:10 37.180287 -109.518530 238 30252ft 255kts
01-Apr-23 09:11 37.133538 -109.585668 237 30245ft 255kts
01-Apr-23 09:12 37.086633 -109.652878 237 30247ft 256kts
01-Apr-23 09:13 37.039637 -109.720064 237 30251ft 257kts
01-Apr-23 09:14 36.992517 -109.787295 236 30242ft 258kts
01-Apr-23 09:15 36.945194 -109.854675 236 30233ft 258kts
01-Apr-23 09:16 36.897892 -109.921897 236 30226ft 258kts
01-Apr-23 09:17 36.850351 -109.989311 235 30221ft 259kts
01-Apr-23 09:18 36.802870 -110.056517 235 30212ft 259kts
01-Apr-23 09:19 36.755102 -110.124005 235 30207ft 259kts
01-Apr-23 09:20 36.706973 -110.191842 235 29269ft 263kts
01-Apr-23 09:21 36.658340 -110.260253 234 28153ft 265kts
01-Apr-23 09:22 36.609009 -110.329513 234 27077ft 269kts
01-Apr-23 09:23 36.555335 -110.396167 225 26041ft 278kts
01-Apr-23 09:24 36.490002 -110.450352 220 24832ft 285kts
01-Apr-23 09:25 36.422108 -110.503998 218 23672ft 291kts
01-Apr-23 09:26 36.353257 -110.558020 218 22349ft 294kts
01-Apr-23 09:27 36.283584 -110.612617 217 21084ft 298kts
01-Apr-23 09:28 36.213036 -110.667803 217 19872ft 301kts
01-Apr-23 09:29 36.141733 -110.723480 217 18710ft 305kts
01-Apr-23 09:30 36.069589 -110.779661 216 17440ft 308kts
01-Apr-23 09:31 35.996868 -110.836172 215 16196ft 311kts
01-Apr-23 09:32 35.923296 -110.893218 215 15001ft 314kts
01-Apr-23 09:33 35.848978 -110.950721 214 14055ft 311kts
01-Apr-23 09:34 35.777814 -111.005682 214 13947ft 294kts
01-Apr-23 09:36 35.706719 -111.060445 214 13940ft 310kts
01-Apr-23 09:37 35.632253 -111.117688 214 13932ft 320kts
01-Apr-23 09:38 35.556048 -111.176126 214 13932ft 325kts
01-Apr-23 09:39 35.479047 -111.235062 213 13826ft 310kts
01-Apr-23 09:40 35.411311 -111.286849 213 13286ft 274kts
01-Apr-23 09:41 35.347285 -111.335578 213 12750ft 269kts
01-Apr-23 09:42 35.290034 -111.391670 229 12289ft 266kts
01-Apr-23 09:43 35.252409 -111.468760 245 11890ft 266kts
01-Apr-23 09:44 35.226638 -111.550701 252 10331ft 250kts
01-Apr-23 09:45 35.195053 -111.609700 221 8619ft 147kts
01-Apr-23 09:46 35.171056 -111.636098 222 7866ft 100kts
01-Apr-23 09:47 35.149483 -111.659162 224 7076ft 94kts
01-Apr-23 09:48 35.142607 -111.668554 231 7001ft 13kts

Navigation Log

Ident Type
Flight plan parsing failed, navigation log unavailable